createdAt,value
2023-04-18T00:00:13.283Z,48.14
2023-04-18T00:00:48.949Z,48.05
2023-04-18T00:01:21.801Z,47.88
2023-04-18T00:01:56.613Z,47.46
2023-04-18T00:02:29.798Z,47.41
2023-04-18T00:03:04.352Z,47.79
2023-04-18T00:03:40.616Z,47.83
2023-04-18T00:04:14.147Z,47.54
2023-04-18T00:04:47.061Z,47.78
2023-04-18T00:05:22.575Z,47.98
2023-04-18T00:05:54.968Z,47.48
2023-04-18T00:06:27.136Z,47.50
2023-04-18T00:07:01.956Z,47.50
2023-04-18T00:07:34.458Z,47.31
2023-04-18T00:08:06.723Z,47.56
2023-04-18T00:08:41.483Z,47.35
2023-04-18T00:09:13.697Z,47.38
2023-04-18T00:09:45.963Z,47.24
2023-04-18T00:10:20.738Z,47.88
2023-04-18T00:10:54.262Z,47.54
2023-04-18T00:11:26.720Z,47.54
2023-04-18T00:12:03.193Z,47.27
2023-04-18T00:12:36.539Z,47.19
2023-04-18T00:13:08.729Z,47.33
2023-04-18T00:13:43.684Z,47.40
2023-04-18T00:14:15.999Z,47.90
2023-04-18T00:14:52.330Z,47.80
2023-04-18T00:15:29.385Z,47.88
2023-04-18T00:16:02.010Z,47.54
2023-04-18T00:16:34.326Z,47.53
2023-04-18T00:17:08.982Z,47.33
2023-04-18T00:17:43.858Z,47.88
2023-04-18T00:18:17.423Z,47.49
2023-04-18T00:18:49.850Z,47.54
2023-04-18T00:19:24.688Z,47.53
2023-04-18T00:19:58.470Z,47.11
2023-04-18T00:20:30.883Z,47.54
2023-04-18T00:21:06.654Z,47.37
2023-04-18T00:21:39.597Z,47.29
2023-04-18T00:22:13.303Z,47.35
2023-04-18T00:22:48.075Z,47.46
2023-04-18T00:23:22.399Z,47.22
2023-04-18T00:23:54.697Z,47.69
2023-04-18T00:24:29.454Z,47.90
2023-04-18T00:25:01.714Z,47.76
2023-04-18T00:25:34.140Z,47.95
2023-04-18T00:26:08.946Z,47.58
2023-04-18T00:26:41.581Z,47.73
2023-04-18T00:27:13.761Z,47.58
2023-04-18T00:27:48.605Z,46.91
2023-04-18T00:28:20.772Z,46.96
2023-04-18T00:28:54.317Z,47.21
2023-04-18T00:29:29.160Z,47.71
2023-04-18T00:30:04.487Z,47.42
2023-04-18T00:30:36.741Z,47.44
2023-04-18T00:31:12.624Z,47.45
2023-04-18T00:31:44.864Z,47.75
2023-04-18T00:32:17.186Z,47.59
2023-04-18T00:32:51.994Z,47.48
2023-04-18T00:33:24.418Z,47.89
2023-04-18T00:33:57.495Z,47.92
2023-04-18T00:34:32.316Z,47.71
2023-04-18T00:35:05.296Z,47.38
2023-04-18T00:35:38.687Z,47.62
2023-04-18T00:36:15.249Z,47.38
2023-04-18T00:36:47.413Z,47.52
2023-04-18T00:37:20.396Z,48.31
2023-04-18T00:37:57.100Z,48.28
2023-04-18T00:38:29.302Z,47.83
2023-04-18T00:39:04.438Z,47.93
2023-04-18T00:39:36.633Z,48.08
2023-04-18T00:40:10.264Z,48.08
2023-04-18T00:40:46.462Z,48.14
2023-04-18T00:41:19.572Z,48.12
2023-04-18T00:41:51.976Z,47.79
2023-04-18T00:42:28.997Z,47.78
2023-04-18T00:43:01.416Z,48.25
2023-04-18T00:43:35.298Z,48.39
2023-04-18T00:44:10.167Z,48.47
2023-04-18T00:44:42.405Z,48.59
2023-04-18T00:45:18.072Z,48.73
2023-04-18T00:45:52.943Z,48.40
2023-04-18T00:46:25.224Z,49.04
2023-04-18T00:46:57.411Z,49.03
2023-04-18T00:47:32.926Z,48.87
2023-04-18T00:48:05.371Z,49.15
2023-04-18T00:48:39.374Z,48.80
2023-04-18T00:49:14.831Z,49.43
2023-04-18T00:49:48.519Z,48.99
2023-04-18T00:50:21.375Z,49.48
2023-04-18T00:50:54.321Z,49.80
2023-04-18T00:51:29.229Z,49.63
2023-04-18T00:52:01.468Z,49.62
2023-04-18T00:52:36.097Z,49.48
2023-04-18T00:53:12.222Z,49.36
2023-04-18T00:53:45.033Z,49.92
2023-04-18T00:54:18.585Z,49.43
2023-04-18T00:54:53.761Z,49.70
2023-04-18T00:55:26.417Z,49.93
2023-04-18T00:55:58.710Z,49.77
2023-04-18T00:56:33.531Z,49.79
2023-04-18T00:57:06.195Z,49.78
2023-04-18T00:57:38.811Z,49.47
2023-04-18T00:58:14.078Z,49.65
2023-04-18T00:58:46.429Z,49.54
2023-04-18T00:59:19.009Z,49.29
2023-04-18T00:59:52.187Z,49.62
2023-04-18T01:00:30.039Z,49.61
2023-04-18T01:01:02.330Z,49.77
2023-04-18T01:01:34.691Z,49.59
2023-04-18T01:02:09.580Z,49.50
2023-04-18T01:02:41.943Z,49.85
2023-04-18T01:03:14.628Z,49.50
2023-04-18T01:03:47.087Z,49.92
2023-04-18T01:04:23.319Z,50.15
2023-04-18T01:04:55.612Z,49.94
2023-04-18T01:05:27.990Z,49.82
2023-04-18T01:06:02.897Z,50.20
2023-04-18T01:06:38.883Z,50.01
2023-04-18T01:07:11.977Z,50.51
2023-04-18T01:07:44.159Z,50.71
2023-04-18T01:08:20.036Z,50.14
2023-04-18T01:08:52.299Z,50.25
2023-04-18T01:09:25.484Z,50.67
2023-04-18T01:09:58.923Z,50.48
2023-04-18T01:10:33.815Z,50.40
2023-04-18T01:11:06.306Z,50.30
2023-04-18T01:11:38.541Z,50.60
2023-04-18T01:12:13.293Z,50.18
2023-04-18T01:12:45.726Z,50.87
2023-04-18T01:13:19.852Z,51.03
2023-04-18T01:14:04.421Z,50.77
2023-04-18T01:14:36.605Z,50.87
2023-04-18T01:15:09.415Z,51.15
2023-04-18T01:15:49.335Z,51.17
2023-04-18T01:16:22.491Z,51.03
2023-04-18T01:16:55.729Z,51.28
2023-04-18T01:17:31.010Z,51.15
2023-04-18T01:18:03.882Z,50.88
2023-04-18T01:18:37.285Z,50.89
2023-04-18T01:19:09.597Z,50.77
2023-04-18T01:19:44.686Z,50.83
2023-04-18T01:20:17.135Z,51.25
2023-04-18T01:20:50.871Z,51.44
2023-04-18T01:21:26.992Z,51.80
2023-04-18T01:22:01.736Z,51.75
2023-04-18T01:22:34.127Z,51.70
2023-04-18T01:23:06.490Z,51.43
2023-04-18T01:23:43.115Z,51.21
2023-04-18T01:24:18.356Z,51.15
2023-04-18T01:24:50.552Z,50.73
2023-04-18T01:25:25.314Z,50.71
2023-04-18T01:25:57.876Z,50.56
2023-04-18T01:26:31.400Z,51.05
2023-04-18T01:27:03.793Z,51.04
2023-04-18T01:27:38.543Z,50.92
2023-04-18T01:28:11.328Z,50.36
2023-04-18T01:28:43.549Z,50.88
2023-04-18T01:29:18.589Z,50.78
2023-04-18T01:29:50.887Z,51.07
2023-04-18T01:30:23.107Z,50.78
2023-04-18T01:30:59.294Z,51.09
2023-04-18T01:31:34.580Z,50.80
2023-04-18T01:32:07.486Z,50.70
2023-04-18T01:32:42.324Z,50.40
2023-04-18T01:33:14.544Z,50.33
2023-04-18T01:33:46.733Z,50.83
2023-04-18T01:34:24.066Z,51.02
2023-04-18T01:34:56.308Z,50.89
2023-04-18T01:35:28.962Z,50.71
2023-04-18T01:36:01.813Z,50.55
2023-04-18T01:36:41.387Z,50.59
2023-04-18T01:37:16.431Z,50.96
2023-04-18T01:37:48.625Z,50.60
2023-04-18T01:38:23.543Z,50.76
2023-04-18T01:38:55.984Z,50.98
2023-04-18T01:39:30.761Z,50.61
2023-04-18T01:40:05.680Z,50.35
2023-04-18T01:40:37.945Z,50.40
2023-04-18T01:41:10.414Z,50.65
2023-04-18T01:41:45.470Z,50.83
2023-04-18T01:42:17.702Z,50.98
2023-04-18T01:42:49.929Z,51.04
2023-04-18T01:43:24.732Z,51.05
2023-04-18T01:43:57.004Z,51.07
2023-04-18T01:44:29.202Z,51.07
2023-04-18T01:45:04.058Z,50.95
2023-04-18T01:45:36.237Z,50.61
2023-04-18T01:46:08.453Z,51.10
2023-04-18T01:46:43.479Z,51.00
2023-04-18T01:47:15.752Z,51.09
2023-04-18T01:47:48.008Z,51.60
2023-04-18T01:48:22.793Z,51.74
2023-04-18T01:48:55.534Z,51.73
2023-04-18T01:49:27.862Z,51.25
2023-04-18T01:50:00.114Z,51.29
2023-04-18T01:50:36.952Z,50.83
2023-04-18T01:51:09.453Z,51.01
2023-04-18T01:51:44.101Z,51.25
2023-04-18T01:52:18.976Z,51.42
2023-04-18T01:52:51.147Z,51.04
2023-04-18T01:53:24.407Z,51.23
2023-04-18T01:53:59.226Z,51.02
2023-04-18T01:54:33.989Z,50.83
2023-04-18T01:55:06.906Z,50.76
2023-04-18T01:55:43.266Z,50.82
2023-04-18T01:56:15.547Z,50.95
2023-04-18T01:56:47.738Z,51.44
2023-04-18T01:57:22.595Z,51.43
2023-04-18T01:57:55.384Z,51.20
2023-04-18T01:58:27.674Z,51.25
2023-04-18T01:59:02.602Z,51.18
2023-04-18T01:59:34.844Z,51.14
2023-04-18T02:00:08.802Z,51.02
2023-04-18T02:00:49.890Z,50.97
2023-04-18T02:01:22.177Z,51.13
2023-04-18T02:01:55.037Z,51.33
2023-04-18T02:02:30.042Z,51.47
2023-04-18T02:03:03.161Z,51.53
2023-04-18T02:03:35.786Z,51.17
2023-04-18T02:04:10.926Z,51.27
2023-04-18T02:04:43.761Z,51.06
2023-04-18T02:05:16.057Z,50.90
2023-04-18T02:05:50.901Z,50.90
2023-04-18T02:06:23.128Z,51.26
2023-04-18T02:06:55.324Z,51.40
2023-04-18T02:07:30.183Z,51.24
2023-04-18T02:08:02.635Z,51.28
2023-04-18T02:08:36.151Z,51.09
2023-04-18T02:09:14.017Z,51.16
2023-04-18T02:09:50.881Z,50.87
2023-04-18T02:10:23.340Z,50.72
2023-04-18T02:10:58.078Z,51.00
2023-04-18T02:11:30.733Z,51.05
2023-04-18T02:12:03.434Z,51.17
2023-04-18T02:12:38.285Z,51.07
2023-04-18T02:13:10.643Z,51.08
2023-04-18T02:13:42.875Z,50.91
2023-04-18T02:14:17.665Z,51.03
2023-04-18T02:14:52.030Z,50.55
2023-04-18T02:15:24.571Z,51.29
2023-04-18T02:15:59.474Z,51.38
2023-04-18T02:16:31.827Z,51.32
2023-04-18T02:17:04.043Z,51.09
2023-04-18T02:17:37.022Z,51.16
2023-04-18T02:18:12.419Z,51.46
2023-04-18T02:18:45.584Z,51.80
2023-04-18T02:19:19.205Z,51.42
2023-04-18T02:19:54.455Z,51.13
2023-04-18T02:20:27.029Z,51.39
2023-04-18T02:20:59.191Z,51.16
2023-04-18T02:21:33.949Z,51.44
2023-04-18T02:22:06.158Z,51.17
2023-04-18T02:22:38.556Z,51.31
2023-04-18T02:23:13.654Z,51.00
2023-04-18T02:23:45.829Z,51.36
2023-04-18T02:24:18.185Z,51.29
2023-04-18T02:24:55.523Z,51.26
2023-04-18T02:25:29.063Z,51.08
2023-04-18T02:26:01.466Z,51.30
2023-04-18T02:26:36.263Z,51.35
2023-04-18T02:27:08.523Z,51.53
2023-04-18T02:27:41.087Z,51.49
2023-04-18T02:28:16.097Z,51.38
2023-04-18T02:28:48.417Z,51.63
2023-04-18T02:29:20.895Z,51.60
2023-04-18T02:29:53.057Z,51.16
2023-04-18T02:30:28.494Z,50.96
2023-04-18T02:31:00.871Z,51.07
2023-04-18T02:31:33.548Z,51.03
2023-04-18T02:32:09.355Z,51.19
2023-04-18T02:32:41.773Z,50.99
2023-04-18T02:33:14.719Z,50.92
2023-04-18T02:33:47.260Z,51.04
2023-04-18T02:34:22.130Z,50.59
2023-04-18T02:34:54.311Z,50.54
2023-04-18T02:35:28.149Z,50.51
2023-04-18T02:36:02.900Z,50.53
2023-04-18T02:36:35.166Z,51.01
2023-04-18T02:37:08.297Z,50.68
2023-04-18T02:37:43.072Z,50.27
2023-04-18T02:38:18.085Z,50.63
2023-04-18T02:38:50.325Z,50.91
2023-04-18T02:39:28.609Z,50.95
2023-04-18T02:40:05.103Z,50.88
2023-04-18T02:40:37.634Z,50.97
2023-04-18T02:41:15.413Z,50.52
2023-04-18T02:41:47.653Z,50.92
2023-04-18T02:42:20.103Z,50.57
2023-04-18T02:42:54.980Z,50.66
2023-04-18T02:43:27.269Z,50.70
2023-04-18T02:43:59.458Z,50.66
2023-04-18T02:44:34.251Z,50.58
2023-04-18T02:45:08.362Z,50.45
2023-04-18T02:45:40.718Z,50.74
2023-04-18T02:46:15.630Z,50.62
2023-04-18T02:46:50.513Z,50.52
2023-04-18T02:47:23.116Z,50.89
2023-04-18T02:47:57.960Z,51.00
2023-04-18T02:48:30.376Z,50.84
2023-04-18T02:49:03.070Z,50.93
2023-04-18T02:49:35.272Z,50.96
2023-04-18T02:50:11.444Z,51.22
2023-04-18T02:50:43.786Z,51.35
2023-04-18T02:51:16.608Z,51.01
2023-04-18T02:51:51.351Z,50.78
2023-04-18T02:52:25.798Z,50.97
2023-04-18T02:52:58.022Z,51.01
2023-04-18T02:53:40.205Z,50.65
2023-04-18T02:54:12.669Z,50.65
2023-04-18T02:55:05.462Z,51.14
2023-04-18T02:55:42.857Z,51.28
2023-04-18T02:56:19.808Z,51.46
2023-04-18T02:57:19.498Z,51.35
2023-04-18T02:58:09.508Z,51.29
2023-04-18T02:59:14.634Z,51.74
2023-04-18T03:00:11.355Z,51.83
2023-04-18T03:01:09.385Z,51.32
2023-04-18T03:02:13.287Z,51.70
2023-04-18T03:02:53.524Z,51.28
2023-04-18T03:03:39.476Z,51.28
2023-04-18T03:04:52.511Z,51.42
2023-04-18T03:05:24.905Z,51.81
2023-04-18T03:06:00.587Z,51.81
2023-04-18T03:06:36.282Z,52.08
2023-04-18T03:07:08.461Z,51.98
2023-04-18T03:07:43.179Z,51.69
2023-04-18T03:08:18.347Z,51.79
2023-04-18T03:08:50.729Z,51.81
2023-04-18T03:09:22.990Z,51.70
2023-04-18T03:10:06.122Z,51.75
2023-04-18T03:10:40.911Z,51.66
2023-04-18T03:11:13.503Z,51.57
2023-04-18T03:11:48.276Z,51.62
2023-04-18T03:12:21.352Z,51.63
2023-04-18T03:12:53.646Z,52.00
2023-04-18T03:13:26.686Z,51.47
2023-04-18T03:14:01.806Z,52.00
2023-04-18T03:14:40.985Z,51.76
2023-04-18T03:15:13.293Z,51.64
2023-04-18T03:15:48.165Z,51.97
2023-04-18T03:16:21.102Z,51.68
2023-04-18T03:16:55.541Z,51.69
2023-04-18T03:17:34.850Z,51.59
2023-04-18T03:18:07.167Z,51.86
2023-04-18T03:18:42.144Z,51.25
2023-04-18T03:19:17.132Z,51.59
2023-04-18T03:19:49.497Z,51.57
2023-04-18T03:20:24.700Z,51.41
2023-04-18T03:21:00.889Z,51.47
2023-04-18T03:21:34.762Z,51.60
2023-04-18T03:22:07.020Z,51.64
2023-04-18T03:22:44.655Z,51.62
2023-04-18T03:23:17.712Z,51.65
2023-04-18T03:23:50.570Z,51.14
2023-04-18T03:24:25.339Z,51.31
2023-04-18T03:25:02.466Z,51.51
2023-04-18T03:25:58.049Z,51.21
2023-04-18T03:26:31.282Z,51.32
2023-04-18T03:27:03.613Z,51.81
2023-04-18T03:27:38.423Z,51.37
2023-04-18T03:28:10.764Z,51.51
2023-04-18T03:28:43.000Z,51.46
2023-04-18T03:29:17.819Z,51.46
2023-04-18T03:29:51.651Z,51.95
2023-04-18T03:30:23.921Z,51.93
2023-04-18T03:31:03.341Z,51.54
2023-04-18T03:31:37.260Z,51.50
2023-04-18T03:32:12.819Z,51.71
2023-04-18T03:32:46.895Z,51.52
2023-04-18T03:33:19.152Z,51.79
2023-04-18T03:33:56.388Z,52.17
2023-04-18T03:34:28.828Z,52.10
2023-04-18T03:35:01.297Z,52.20
2023-04-18T03:35:36.504Z,52.13
2023-04-18T03:36:11.513Z,51.87
2023-04-18T03:36:46.559Z,51.82
2023-04-18T03:37:20.044Z,51.87
2023-04-18T03:38:00.161Z,51.56
2023-04-18T03:38:40.708Z,51.82
2023-04-18T03:39:13.824Z,51.53
2023-04-18T03:39:48.900Z,51.51
2023-04-18T03:40:23.840Z,51.53
2023-04-18T03:41:01.233Z,51.96
2023-04-18T03:41:38.587Z,52.14
2023-04-18T03:42:10.939Z,51.75
2023-04-18T03:42:46.622Z,52.18
2023-04-18T03:43:19.717Z,51.89
2023-04-18T03:43:51.944Z,51.71
2023-04-18T03:44:26.746Z,51.88
2023-04-18T03:44:59.024Z,51.73
2023-04-18T03:45:32.912Z,51.72
2023-04-18T03:46:08.059Z,51.71
2023-04-18T03:46:41.440Z,52.01
2023-04-18T03:47:15.054Z,51.48
2023-04-18T03:47:52.419Z,51.49
2023-04-18T03:48:26.238Z,51.82
2023-04-18T03:49:00.019Z,51.82
2023-04-18T03:49:34.788Z,51.50
2023-04-18T03:50:09.368Z,51.49
2023-04-18T03:50:41.767Z,51.90
2023-04-18T03:51:18.314Z,51.97
2023-04-18T03:51:52.263Z,52.09
2023-04-18T03:52:24.970Z,51.96
2023-04-18T03:52:59.740Z,51.86
2023-04-18T03:53:35.134Z,51.76
2023-04-18T03:54:07.392Z,51.77
2023-04-18T03:54:42.206Z,51.51
2023-04-18T03:55:14.967Z,51.58
2023-04-18T03:55:53.158Z,51.44
2023-04-18T03:56:29.864Z,51.65
2023-04-18T03:57:03.256Z,51.93
2023-04-18T03:57:40.244Z,51.94
2023-04-18T03:58:16.445Z,51.64
2023-04-18T03:58:51.785Z,51.84
2023-04-18T03:59:25.911Z,51.70
2023-04-18T03:59:58.143Z,52.01
2023-04-18T04:00:33.266Z,51.86
2023-04-18T04:01:11.241Z,52.19
2023-04-18T04:01:43.582Z,52.11
2023-04-18T04:02:18.578Z,51.69
2023-04-18T04:02:51.256Z,51.76
2023-04-18T04:03:28.027Z,51.67
2023-04-18T04:04:04.111Z,51.52
2023-04-18T04:04:36.503Z,52.22
2023-04-18T04:05:09.380Z,52.01
2023-04-18T04:05:44.450Z,51.79
2023-04-18T04:06:17.912Z,51.84
2023-04-18T04:06:50.826Z,52.13
2023-04-18T04:07:25.651Z,52.40
2023-04-18T04:07:58.423Z,52.11
2023-04-18T04:08:30.720Z,51.98
2023-04-18T04:09:05.687Z,51.95
2023-04-18T04:09:38.423Z,51.98
2023-04-18T04:10:11.815Z,52.00
2023-04-18T04:10:44.060Z,52.26
2023-04-18T04:11:22.073Z,52.15
2023-04-18T04:11:54.258Z,52.55
2023-04-18T04:12:27.313Z,52.42
2023-04-18T04:13:02.137Z,52.66
2023-04-18T04:13:36.327Z,52.59
2023-04-18T04:14:11.290Z,52.12
2023-04-18T04:14:48.172Z,52.39
2023-04-18T04:15:23.078Z,52.45
2023-04-18T04:16:01.191Z,52.43
2023-04-18T04:16:33.739Z,52.37
2023-04-18T04:17:06.736Z,52.44
2023-04-18T04:17:41.642Z,52.05
2023-04-18T04:18:13.877Z,52.08
2023-04-18T04:18:48.825Z,52.79
2023-04-18T04:19:24.030Z,52.45
2023-04-18T04:20:06.504Z,53.11
2023-04-18T04:20:39.294Z,52.95
2023-04-18T04:21:20.641Z,52.49
2023-04-18T04:21:56.725Z,53.00
2023-04-18T04:22:29.028Z,52.49
2023-04-18T04:23:03.930Z,52.87
2023-04-18T04:23:38.240Z,52.65
2023-04-18T04:24:10.721Z,52.84
2023-04-18T04:24:49.675Z,52.74
2023-04-18T04:25:28.839Z,53.07
2023-04-18T04:26:06.888Z,52.84
2023-04-18T04:26:50.933Z,53.05
2023-04-18T04:27:29.392Z,52.76
2023-04-18T04:28:03.023Z,52.86
2023-04-18T04:28:40.106Z,52.70
2023-04-18T04:29:16.576Z,52.81
2023-04-18T04:29:52.379Z,52.74
2023-04-18T04:30:24.720Z,52.57
2023-04-18T04:31:00.158Z,52.39
2023-04-18T04:31:32.953Z,52.40
2023-04-18T04:32:06.832Z,52.74
2023-04-18T04:32:45.737Z,52.35
2023-04-18T04:33:18.719Z,52.24
2023-04-18T04:33:51.216Z,52.23
2023-04-18T04:34:28.486Z,52.32
2023-04-18T04:35:00.942Z,52.50
2023-04-18T04:35:37.669Z,52.43
2023-04-18T04:36:10.434Z,52.30
2023-04-18T04:36:43.356Z,52.62
2023-04-18T04:37:20.996Z,52.39
2023-04-18T04:38:08.728Z,52.64
2023-04-18T04:38:52.480Z,52.84
2023-04-18T04:39:30.528Z,52.55
2023-04-18T04:40:37.640Z,52.41
2023-04-18T04:41:15.229Z,52.51
2023-04-18T04:41:50.165Z,52.47
2023-04-18T04:42:28.713Z,52.47
2023-04-18T04:43:12.912Z,52.71
2023-04-18T04:43:48.415Z,52.83
2023-04-18T04:44:27.092Z,52.77
2023-04-18T04:44:59.976Z,52.56
2023-04-18T04:45:35.296Z,52.20
2023-04-18T04:46:07.962Z,52.68
2023-04-18T04:46:40.608Z,52.67
2023-04-18T04:47:22.155Z,52.66
2023-04-18T04:47:54.521Z,52.41
2023-04-18T04:48:27.186Z,52.47
2023-04-18T04:49:02.521Z,52.22
2023-04-18T04:49:34.717Z,52.37
2023-04-18T04:50:13.491Z,52.67
2023-04-18T04:50:55.262Z,52.68
2023-04-18T04:51:28.228Z,52.62
2023-04-18T04:52:02.092Z,52.28
2023-04-18T04:52:37.204Z,52.54
2023-04-18T04:53:09.533Z,52.58
2023-04-18T04:53:41.883Z,52.80
2023-04-18T04:54:16.851Z,52.78
2023-04-18T04:54:51.613Z,52.82
2023-04-18T04:55:27.726Z,52.30
2023-04-18T04:56:00.031Z,52.35
2023-04-18T04:56:35.643Z,52.66
2023-04-18T04:57:10.899Z,52.13
2023-04-18T04:57:43.239Z,52.27
2023-04-18T04:58:33.205Z,52.26
2023-04-18T04:59:12.016Z,52.57
2023-04-18T04:59:46.902Z,52.70
2023-04-18T05:00:23.058Z,52.53
2023-04-18T05:00:56.677Z,52.63
2023-04-18T05:01:31.633Z,52.98
2023-04-18T05:02:04.712Z,52.58
2023-04-18T05:02:37.064Z,52.74
2023-04-18T05:03:12.613Z,53.11
2023-04-18T05:03:45.211Z,52.70
2023-04-18T05:04:20.362Z,52.87
2023-04-18T05:04:52.831Z,52.39
2023-04-18T05:05:25.043Z,52.65
2023-04-18T05:05:59.855Z,52.99
2023-04-18T05:06:32.286Z,52.75
2023-04-18T05:07:05.982Z,52.67
2023-04-18T05:07:40.821Z,52.26
2023-04-18T05:08:13.040Z,52.49
2023-04-18T05:08:47.855Z,52.15
2023-04-18T05:09:20.062Z,52.19
2023-04-18T05:09:55.047Z,52.36
2023-04-18T05:10:27.302Z,52.29
2023-04-18T05:11:02.056Z,52.16
2023-04-18T05:11:34.280Z,52.48
2023-04-18T05:12:06.988Z,52.22
2023-04-18T05:12:44.352Z,52.14
2023-04-18T05:13:16.946Z,52.13
2023-04-18T05:13:49.117Z,51.69
2023-04-18T05:14:23.888Z,51.65
2023-04-18T05:14:56.079Z,52.00
2023-04-18T05:15:28.362Z,51.35
2023-04-18T05:16:03.243Z,51.83
2023-04-18T05:16:36.014Z,51.78
2023-04-18T05:17:10.886Z,51.64
2023-04-18T05:17:43.216Z,51.48
2023-04-18T05:18:15.704Z,51.23
2023-04-18T05:18:50.569Z,51.09
2023-04-18T05:19:23.607Z,51.46
2023-04-18T05:19:58.600Z,51.42
2023-04-18T05:20:30.882Z,51.27
2023-04-18T05:21:03.113Z,51.11
2023-04-18T05:21:38.023Z,51.30
2023-04-18T05:22:10.923Z,50.98
2023-04-18T05:22:43.110Z,51.06
2023-04-18T05:23:17.891Z,50.95
2023-04-18T05:23:50.097Z,51.17
2023-04-18T05:24:22.368Z,51.14
2023-04-18T05:24:57.131Z,51.26
2023-04-18T05:25:30.106Z,51.12
2023-04-18T05:26:02.363Z,50.74
2023-04-18T05:26:37.182Z,51.06
2023-04-18T05:27:10.068Z,51.07
2023-04-18T05:27:46.008Z,50.39
2023-04-18T05:28:20.850Z,50.10
2023-04-18T05:28:53.083Z,50.14
2023-04-18T05:29:25.817Z,49.91
2023-04-18T05:30:00.685Z,49.49
2023-04-18T05:30:32.884Z,49.59
2023-04-18T05:31:05.270Z,49.62
2023-04-18T05:31:40.026Z,49.21
2023-04-18T05:32:12.237Z,49.46
2023-04-18T05:32:44.728Z,49.41
2023-04-18T05:33:19.522Z,49.16
2023-04-18T05:33:51.736Z,49.15
2023-04-18T05:34:24.032Z,49.28
2023-04-18T05:34:59.452Z,49.12
2023-04-18T05:35:31.875Z,48.48
2023-04-18T05:36:04.527Z,48.63
2023-04-18T05:36:39.855Z,48.52
2023-04-18T05:37:12.085Z,48.00
2023-04-18T05:37:44.351Z,48.67
2023-04-18T05:38:19.228Z,48.60
2023-04-18T05:38:51.888Z,48.72
2023-04-18T05:39:24.086Z,48.26
2023-04-18T05:40:00.757Z,48.31
2023-04-18T05:40:33.442Z,48.45
2023-04-18T05:41:05.949Z,48.50
2023-04-18T05:41:40.726Z,48.65
2023-04-18T05:42:12.897Z,48.03
2023-04-18T05:42:47.718Z,48.09
2023-04-18T05:43:22.772Z,48.63
2023-04-18T05:44:04.985Z,49.24
2023-04-18T05:44:40.646Z,48.52
2023-04-18T05:45:12.932Z,47.33
2023-04-18T05:45:45.591Z,46.77
2023-04-18T05:46:20.441Z,46.87
2023-04-18T05:46:52.725Z,46.75
2023-04-18T05:47:27.267Z,47.08
2023-04-18T05:48:02.200Z,47.26
2023-04-18T05:48:34.443Z,46.98
2023-04-18T05:49:06.678Z,46.82
2023-04-18T05:49:41.657Z,46.45
2023-04-18T05:50:14.031Z,46.64
2023-04-18T05:50:46.347Z,46.92
2023-04-18T05:51:21.162Z,46.50
2023-04-18T05:51:53.365Z,47.10
2023-04-18T05:52:26.353Z,47.14
2023-04-18T05:53:01.691Z,47.22
2023-04-18T05:53:33.905Z,46.63
2023-04-18T05:54:08.867Z,46.52
2023-04-18T05:54:41.367Z,46.00
2023-04-18T05:55:13.620Z,46.11
2023-04-18T05:55:49.132Z,46.43
2023-04-18T05:56:21.381Z,45.84
2023-04-18T05:56:54.856Z,45.47
2023-04-18T05:57:29.629Z,45.67
2023-04-18T05:58:04.525Z,45.86
2023-04-18T05:58:39.334Z,45.80
2023-04-18T05:59:11.570Z,45.63
2023-04-18T05:59:44.027Z,45.48
2023-04-18T06:00:20.046Z,44.98
2023-04-18T06:00:53.551Z,44.88
2023-04-18T06:01:25.837Z,45.35
2023-04-18T06:02:00.993Z,45.40
2023-04-18T06:02:33.304Z,44.94
2023-04-18T06:03:07.182Z,44.93
2023-04-18T06:03:43.792Z,45.08
2023-04-18T06:04:17.055Z,45.30
2023-04-18T06:04:50.001Z,45.32
2023-04-18T06:05:25.084Z,44.62
2023-04-18T06:05:57.812Z,45.16
2023-04-18T06:06:30.236Z,45.24
2023-04-18T06:07:05.125Z,45.47
2023-04-18T06:07:37.342Z,45.25
2023-04-18T06:08:09.658Z,45.42
2023-04-18T06:08:44.391Z,45.26
2023-04-18T06:09:16.819Z,45.43
2023-04-18T06:09:49.966Z,45.36
2023-04-18T06:10:24.900Z,44.98
2023-04-18T06:10:57.099Z,44.91
2023-04-18T06:11:29.307Z,45.01
2023-04-18T06:12:04.375Z,44.62
2023-04-18T06:12:36.575Z,45.06
2023-04-18T06:13:14.504Z,45.25
2023-04-18T06:13:46.739Z,45.36
2023-04-18T06:14:18.941Z,45.04
2023-04-18T06:14:53.812Z,44.65
2023-04-18T06:15:26.093Z,44.84
2023-04-18T06:16:01.056Z,44.66
2023-04-18T06:16:33.354Z,45.02
2023-04-18T06:17:07.449Z,44.84
2023-04-18T06:17:42.409Z,45.02
2023-04-18T06:18:14.687Z,44.98
2023-04-18T06:18:46.861Z,45.00
2023-04-18T06:19:22.185Z,44.76
2023-04-18T06:19:54.437Z,44.42
2023-04-18T06:20:29.330Z,44.48
2023-04-18T06:21:01.501Z,44.80
2023-04-18T06:21:36.289Z,44.61
2023-04-18T06:22:08.473Z,44.49
2023-04-18T06:22:43.251Z,44.21
2023-04-18T06:23:15.882Z,44.35
2023-04-18T06:23:50.690Z,44.40
2023-04-18T06:24:23.286Z,44.06
2023-04-18T06:24:55.914Z,44.52
2023-04-18T06:25:30.742Z,44.19
2023-04-18T06:26:03.095Z,44.06
2023-04-18T06:26:38.287Z,43.96
2023-04-18T06:27:20.445Z,43.93
2023-04-18T06:28:02.904Z,44.58
2023-04-18T06:28:37.755Z,44.66
2023-04-18T06:29:09.941Z,44.98
2023-04-18T06:29:44.695Z,44.70
2023-04-18T06:30:17.107Z,44.94
2023-04-18T06:30:52.148Z,44.47
2023-04-18T06:31:24.452Z,43.92
2023-04-18T06:31:59.391Z,44.04
2023-04-18T06:32:31.761Z,44.24
2023-04-18T06:33:10.522Z,44.85
2023-04-18T06:33:42.772Z,44.93
2023-04-18T06:34:15.316Z,45.12
2023-04-18T06:34:50.570Z,44.98
2023-04-18T06:35:24.555Z,45.15
2023-04-18T06:36:01.295Z,44.53
2023-04-18T06:36:33.723Z,44.73
2023-04-18T06:37:06.121Z,44.66
2023-04-18T06:37:44.209Z,44.48
2023-04-18T06:38:16.407Z,44.36
2023-04-18T06:38:51.178Z,44.49
2023-04-18T06:39:23.364Z,44.85
2023-04-18T06:39:55.706Z,44.90
2023-04-18T06:40:30.511Z,44.40
2023-04-18T06:41:02.851Z,44.17
2023-04-18T06:41:37.631Z,43.85
2023-04-18T06:42:09.862Z,44.04
2023-04-18T06:42:52.301Z,44.91
2023-04-18T06:43:24.613Z,44.32
2023-04-18T06:44:14.666Z,44.11
2023-04-18T06:44:46.922Z,43.60
2023-04-18T06:45:21.957Z,43.75
2023-04-18T06:45:54.255Z,43.32
2023-04-18T06:46:29.114Z,43.07
2023-04-18T06:47:01.667Z,43.41
2023-04-18T06:47:33.879Z,43.40
2023-04-18T06:48:10.889Z,43.31
2023-04-18T06:48:43.153Z,43.08
2023-04-18T06:49:17.983Z,42.64
2023-04-18T06:49:50.255Z,42.95
2023-04-18T06:50:25.318Z,43.35
2023-04-18T06:50:57.575Z,43.65
2023-04-18T06:51:29.764Z,43.67
2023-04-18T06:52:04.557Z,43.58
2023-04-18T06:52:40.773Z,43.31
2023-04-18T06:53:15.646Z,42.80
2023-04-18T06:53:48.648Z,43.04
2023-04-18T06:54:23.466Z,43.07
2023-04-18T06:54:55.632Z,42.54
2023-04-18T06:55:30.892Z,42.40
2023-04-18T06:56:03.275Z,43.02
2023-04-18T06:56:36.633Z,43.21
2023-04-18T06:57:11.987Z,42.87
2023-04-18T06:57:44.362Z,43.42
2023-04-18T06:58:17.394Z,43.53
2023-04-18T06:58:53.141Z,44.13
2023-04-18T06:59:28.195Z,43.69
2023-04-18T07:00:03.012Z,43.52
2023-04-18T07:00:35.240Z,43.37
2023-04-18T07:01:10.054Z,43.01
2023-04-18T07:01:42.331Z,42.73
2023-04-18T07:02:17.463Z,43.04
2023-04-18T07:02:49.950Z,42.67
2023-04-18T07:03:22.421Z,42.54
2023-04-18T07:03:57.438Z,42.61
2023-04-18T07:04:29.861Z,43.04
2023-04-18T07:05:02.218Z,42.95
2023-04-18T07:05:37.003Z,42.98
2023-04-18T07:06:10.720Z,42.53
2023-04-18T07:06:45.740Z,43.14
2023-04-18T07:07:17.945Z,42.76
2023-04-18T07:07:52.779Z,43.18
2023-04-18T07:08:24.936Z,43.13
2023-04-18T07:09:00.300Z,43.29
2023-04-18T07:09:35.312Z,42.77
2023-04-18T07:10:09.966Z,42.96
2023-04-18T07:10:46.002Z,42.66
2023-04-18T07:11:18.787Z,42.63
2023-04-18T07:11:53.724Z,42.63
2023-04-18T07:12:26.119Z,42.54
2023-04-18T07:13:00.954Z,42.24
2023-04-18T07:13:33.564Z,42.74
2023-04-18T07:14:08.437Z,42.55
2023-04-18T07:14:43.282Z,42.45
2023-04-18T07:15:18.154Z,42.55
2023-04-18T07:15:50.395Z,42.87
2023-04-18T07:16:25.315Z,42.47
2023-04-18T07:16:58.108Z,42.70
2023-04-18T07:17:30.353Z,42.63
2023-04-18T07:18:05.324Z,42.42
2023-04-18T07:18:38.586Z,42.51
2023-04-18T07:19:13.624Z,42.93
2023-04-18T07:19:45.935Z,42.83
2023-04-18T07:20:20.743Z,42.49
2023-04-18T07:20:52.940Z,42.17
2023-04-18T07:21:25.135Z,42.86
2023-04-18T07:22:00.049Z,42.42
2023-04-18T07:22:32.231Z,42.60
2023-04-18T07:23:07.053Z,43.00
2023-04-18T07:23:39.274Z,42.88
2023-04-18T07:24:14.807Z,42.79